Fort Fairfield, Maine
Current Conditions -  °F | °C
As of 6:17 PM on Thursday 18 Dec 2014 (Local Time) from KCAR Reporting Station
Light Snow Light Snow  
Wind Chill: 12°   Ceiling: 3900
Heat Index: 26°   Visibility: 2mi
Dew Point: 22°   Wind: 22mph
Humidity: 84%   Direction: 340°NNW
Pressure: 29.59"   Gusts: 28mph
Location:  46.77°N, 67.83°W
Report Text: KCAR 182317Z AUTO 34019G24KT 2SM -SN BR OVC039 M03/M06 A2959 RMK AO2 P0000 T10331056
Loading
Personal Weather Stations






























Interactive Weather Map New forecast layout! Learn more

10-Day Weather Forecast

Advertisements
Track Severe Weather on mobile